Time;durP1;ratioP1;P1;durP2;ratioP2;P2;SDS_P1;SDS_P2;PMS_P1;PMS_P2;Temp;Humidity;BMP_temperature;BMP_pressure;BME280_temperature;BME280_humidity;BME280_pressure;Samples;Min_cycle;Max_cycle;Signal;HPM_P1;HPM_P2
2022/01/22 00:00:17;;;;;;;11.02;7.68;;;;;;;8.22;62.69;102479.81;677329;29;1737;-86
2022/01/22 00:00:37;;;;;;;10.68;7.43;;;;;;;8.14;62.91;102494.03;677234;29;1254;-85
2022/01/22 00:00:58;;;;;;;9.73;7.50;;;;;;;8.13;63.18;102481.81;679772;29;1701;-85
2022/01/22 00:01:19;;;;;;;10.18;7.50;;;;;;;8.11;62.99;102477.31;682551;28;1238;-85
2022/01/22 00:01:43;;;;;;;9.82;7.22;;;;;;;8.15;63.45;102487.09;679990;29;968;-85
2022/01/22 00:02:05;;;;;;;9.40;7.00;;;;;;;8.19;62.99;102497.84;674727;29;1911;-86
2022/01/22 00:02:26;;;;;;;8.57;7.00;;;;;;;8.25;63.04;102491.22;682427;29;1397;-85
2022/01/22 00:02:48;;;;;;;9.50;7.20;;;;;;;8.27;63.43;102494.81;679186;29;1484;-85
2022/01/22 00:03:09;;;;;;;10.80;7.20;;;;;;;8.28;63.10;102486.22;680004;29;1045;-85
2022/01/22 00:03:29;;;;;;;11.20;7.30;;;;;;;8.19;63.13;102492.63;680031;29;1050;-85
2022/01/22 00:03:50;;;;;;;10.63;7.28;;;;;;;8.22;62.61;102471.09;685186;28;1215;-85
2022/01/22 00:04:10;;;;;;;11.00;7.60;;;;;;;8.33;62.91;102490.00;682438;29;1172;-85
2022/01/22 00:04:35;;;;;;;11.13;7.40;;;;;;;8.28;62.81;102481.91;677545;29;769;-86
2022/01/22 00:04:56;;;;;;;11.75;7.70;;;;;;;8.21;62.90;102478.03;679692;29;1719;-85
2022/01/22 00:05:19;;;;;;;11.57;7.60;;;;;;;8.31;62.76;102486.41;680867;29;1137;-85
2022/01/22 00:05:40;;;;;;;12.23;7.63;;;;;;;8.21;62.67;102491.03;677325;29;1355;-85
2022/01/22 00:06:01;;;;;;;13.18;7.60;;;;;;;8.21;62.47;102480.63;677387;29;1084;-85
2022/01/22 00:06:22;;;;;;;11.82;7.55;;;;;;;8.28;62.77;102486.22;682463;29;1244;-86
2022/01/22 00:06:42;;;;;;;11.95;7.40;;;;;;;8.29;62.81;102485.44;681849;29;1288;-85
2022/01/22 00:07:04;;;;;;;10.75;7.40;;;;;;;8.34;62.53;102495.31;672040;29;2033;-86
2022/01/22 00:07:25;;;;;;;9.48;7.00;;;;;;;8.28;62.77;102484.50;682065;29;1369;-85
2022/01/22 00:07:45;;;;;;;10.07;7.63;;;;;;;8.34;62.57;102494.41;677839;29;1277;-85
2022/01/22 00:08:07;;;;;;;12.27;7.70;;;;;;;8.36;62.71;102490.22;676726;29;1112;-85
2022/01/22 00:08:27;;;;;;;15.40;8.20;;;;;;;8.38;62.74;102491.22;677291;29;1117;-85
2022/01/22 00:08:48;;;;;;;14.48;7.85;;;;;;;8.30;62.85;102490.69;682541;29;1186;-86
2022/01/22 00:09:09;;;;;;;12.90;7.70;;;;;;;8.30;62.58;102484.63;682633;29;1108;-85
2022/01/22 00:09:36;;;;;;;12.27;7.80;;;;;;;8.33;62.94;102492.59;679501;29;1331;-85
2022/01/22 00:10:03;;;;;;;13.60;8.07;;;;;;;8.28;62.56;102486.22;679800;29;1429;-85
2022/01/22 00:10:24;;;;;;;11.95;7.63;;;;;;;8.13;63.07;102489.63;682228;29;1197;-85
2022/01/22 00:10:45;;;;;;;10.63;7.45;;;;;;;8.24;62.95;102500.72;679859;28;2321;-85
2022/01/22 00:11:06;;;;;;;10.70;7.30;;;;;;;8.14;62.92;102498.31;679395;29;1633;-85
2022/01/22 00:11:34;;;;;;;14.70;7.95;;;;;;;8.21;62.95;102506.63;684657;28;1326;-86
2022/01/22 00:11:55;;;;;;;15.70;8.38;;;;;;;8.21;63.20;102504.03;684619;28;1115;-84
2022/01/22 00:12:27;;;;;;;12.18;8.23;;;;;;;8.18;62.75;102498.59;682849;28;1289;-85
2022/01/22 00:14:23;;;;;;;11.65;8.27;;;;;;;8.25;63.42;102501.63;676942;29;1308;-85
2022/01/22 00:14:44;;;;;;;11.90;8.10;;;;;;;8.19;63.04;102489.13;681725;29;1045;-85
2022/01/22 00:15:08;;;;;;;10.95;7.70;;;;;;;8.32;63.31;102499.53;671851;29;1170;-85
2022/01/22 00:15:31;;;;;;;9.80;7.70;;;;;;;8.29;63.06;102482.81;682546;28;824;-85
2022/01/22 00:15:52;;;;;;;10.68;7.53;;;;;;;8.29;63.11;102485.44;684684;28;947;-85
2022/01/22 00:16:14;;;;;;;11.70;8.00;;;;;;;8.28;62.98;102502.72;682445;28;1171;-85
2022/01/22 00:16:34;;;;;;;11.63;7.85;;;;;;;8.25;62.94;102483.41;674217;29;1364;-85
2022/01/22 00:16:58;;;;;;;11.45;8.10;;;;;;;8.20;62.79;102486.63;677539;29;1075;-85
2022/01/22 00:17:19;;;;;;;10.32;7.80;;;;;;;8.24;62.98;102490.31;682751;28;1275;-85
2022/01/22 00:17:40;;;;;;;9.63;8.10;;;;;;;8.29;62.79;102490.63;682526;29;1218;-85
2022/01/22 00:18:01;;;;;;;9.98;8.13;;;;;;;8.28;63.16;102486.22;679863;29;1389;-85
2022/01/22 00:18:21;;;;;;;10.35;8.07;;;;;;;8.21;63.16;102488.41;682322;28;1294;-85
2022/01/22 00:18:42;;;;;;;12.00;8.30;;;;;;;8.27;63.05;102494.81;685172;28;1228;-85
2022/01/22 00:19:08;;;;;;;11.82;8.15;;;;;;;8.21;62.63;102488.41;685217;28;1182;-85
2022/01/22 00:19:28;;;;;;;11.95;7.97;;;;;;;8.21;63.35;102479.69;682000;28;1386;-85
2022/01/22 00:19:49;;;;;;;11.67;7.53;;;;;;;8.30;62.89;102492.41;684913;28;1098;-85
2022/01/22 00:20:12;;;;;;;13.50;7.90;;;;;;;8.23;62.91;102492.00;685132;28;1233;-85
2022/01/22 00:20:32;;;;;;;15.43;8.00;;;;;;;8.15;62.72;102485.41;680803;29;1084;-85
2022/01/22 00:20:53;;;;;;;14.38;8.05;;;;;;;8.11;63.07;102488.59;677376;29;1113;-85
2022/01/22 00:21:14;;;;;;;11.20;7.40;;;;;;;8.13;63.20;102491.31;684863;28;1187;-85
2022/01/22 00:21:34;;;;;;;11.57;7.47;;;;;;;7.98;63.55;102483.41;682605;28;1294;-85
2022/01/22 00:21:55;;;;;;;13.70;7.30;;;;;;;7.98;63.27;102476.50;679881;29;1293;-84
2022/01/22 00:22:16;;;;;;;14.40;7.80;;;;;;;8.04;63.35;102481.22;677224;29;1988;-85
2022/01/22 00:22:37;;;;;;;12.77;8.02;;;;;;;8.05;63.77;102483.00;682502;29;1185;-85
2022/01/22 00:22:58;;;;;;;11.85;8.50;;;;;;;8.00;63.44;102492.19;682580;29;1229;-85
2022/01/22 00:23:20;;;;;;;13.77;8.50;;;;;;;7.97;63.71;102487.69;677174;29;1197;-85
2022/01/22 00:23:48;;;;;;;14.02;8.35;;;;;;;8.03;63.85;102489.78;677275;29;1104;-85
2022/01/22 00:24:11;;;;;;;12.45;8.32;;;;;;;8.01;63.55;102481.00;677289;29;1203;-85
2022/01/22 00:24:38;;;;;;;11.38;8.25;;;;;;;8.06;63.53;102484.81;674280;29;1841;-85
2022/01/22 00:25:00;;;;;;;13.15;8.50;;;;;;;7.97;63.73;102482.50;679952;29;931;-85
2022/01/22 00:25:22;;;;;;;14.85;8.60;;;;;;;7.90;63.60;102486.38;680734;28;1380;-85
2022/01/22 00:25:43;;;;;;;14.25;8.57;;;;;;;7.92;63.83;102487.38;674773;29;1355;-85
2022/01/22 00:26:03;;;;;;;15.33;8.40;;;;;;;7.94;64.04;102480.59;677357;29;1073;-85
2022/01/22 00:26:24;;;;;;;14.65;8.40;;;;;;;8.02;63.69;102488.00;677589;29;1551;-85
2022/01/22 00:26:46;;;;;;;14.40;8.60;;;;;;;8.02;63.81;102480.19;679809;29;1541;-85
2022/01/22 00:27:07;;;;;;;9.82;8.10;;;;;;;7.97;63.81;102479.00;681068;29;1154;-85
2022/01/22 00:27:29;;;;;;;10.27;7.70;;;;;;;7.95;63.74;102495.41;671915;29;1374;-85
2022/01/22 00:27:51;;;;;;;11.45;7.90;;;;;;;7.94;63.56;102475.38;677332;29;1130;-85
2022/01/22 00:28:12;;;;;;;14.57;8.77;;;;;;;7.91;63.47;102488.19;682254;29;1692;-85
2022/01/22 00:28:33;;;;;;;13.77;8.82;;;;;;;7.93;63.66;102483.97;676976;29;1459;-85
2022/01/22 00:28:55;;;;;;;14.40;8.68;;;;;;;8.02;63.67;102496.72;677180;29;1038;-85
2022/01/22 00:29:16;;;;;;;12.95;8.55;;;;;;;7.97;63.61;102485.09;677230;29;1554;-85
2022/01/22 00:29:37;;;;;;;13.45;8.50;;;;;;;7.94;63.87;102484.91;682001;29;1404;-85
2022/01/22 00:29:57;;;;;;;12.10;8.63;;;;;;;7.94;63.68;102483.19;680022;29;1178;-85
2022/01/22 00:30:37;;;;;;;12.07;8.77;;;;;;;8.03;63.99;102495.00;676932;29;1207;-84
2022/01/22 00:30:57;;;;;;;13.93;8.57;;;;;;;7.84;63.86;102479.91;678739;29;1536;-85
2022/01/22 00:31:18;;;;;;;14.37;7.93;;;;;;;7.88;64.12;102468.88;681108;28;1274;-85
2022/01/22 00:31:39;;;;;;;12.98;8.10;;;;;;;7.89;63.69;102479.41;677272;28;1131;-85
2022/01/22 00:32:00;;;;;;;13.60;9.05;;;;;;;7.95;63.70;102473.69;682514;28;1180;-85
2022/01/22 00:32:21;;;;;;;14.93;9.60;;;;;;;8.02;63.76;102485.38;681407;29;1304;-85
2022/01/22 00:32:42;;;;;;;14.90;9.18;;;;;;;8.00;63.90;102479.19;674502;29;1861;-85
2022/01/22 00:33:03;;;;;;;13.23;8.50;;;;;;;8.02;63.96;102481.09;682645;29;1061;-85
2022/01/22 00:33:24;;;;;;;11.98;8.60;;;;;;;8.05;63.33;102483.00;681857;29;1104;-85
2022/01/22 00:33:44;;;;;;;12.83;8.53;;;;;;;7.99;63.33;102467.88;679748;29;1152;-84
2022/01/22 00:34:06;;;;;;;11.63;8.40;;;;;;;8.12;63.60;102485.22;679692;29;1244;-85
2022/01/22 00:34:26;;;;;;;11.57;8.27;;;;;;;8.06;64.08;102484.81;677178;29;1213;-84
2022/01/22 00:34:47;;;;;;;11.80;8.63;;;;;;;7.98;63.72;102475.59;681742;29;1658;-84
2022/01/22 00:35:08;;;;;;;12.57;8.70;;;;;;;7.95;63.92;102487.63;679421;29;1292;-84
2022/01/22 00:35:29;;;;;;;12.90;8.52;;;;;;;7.93;63.77;102475.31;674740;29;1259;-84
2022/01/22 00:35:50;;;;;;;12.48;8.25;;;;;;;8.04;63.74;102481.22;682549;29;1200;-84
2022/01/22 00:36:10;;;;;;;13.18;8.40;;;;;;;7.96;64.05;102480.69;677118;29;1323;-85
2022/01/22 00:36:31;;;;;;;13.57;8.80;;;;;;;7.95;63.83;102479.81;682363;29;1478;-84
2022/01/22 00:36:53;;;;;;;13.35;8.70;;;;;;;7.98;63.96;102486.00;682683;28;784;-84
2022/01/22 00:37:14;;;;;;;14.45;9.07;;;;;;;7.91;63.84;102475.19;676990;29;1299;-85
2022/01/22 00:37:40;;;;;;;17.67;9.30;;;;;;;8.00;63.95;102476.59;679885;29;1195;-85
2022/01/22 00:38:00;;;;;;;16.55;9.30;;;;;;;7.94;64.07;102480.59;674697;29;826;-85
2022/01/22 00:38:21;;;;;;;16.20;9.10;;;;;;;8.00;63.87;102477.50;674416;29;1170;-85
2022/01/22 00:38:41;;;;;;;14.93;9.30;;;;;;;8.00;63.82;102471.41;674803;29;1095;-85
2022/01/22 00:39:03;;;;;;;16.63;9.43;;;;;;;7.99;63.73;102473.09;674623;29;1425;-85
2022/01/22 00:39:24;;;;;;;16.10;9.25;;;;;;;7.99;63.50;102475.69;682212;29;1258;-85
2022/01/22 00:39:44;;;;;;;15.57;8.90;;;;;;;8.02;64.13;102481.09;679496;29;1021;-85
2022/01/22 00:40:06;;;;;;;14.15;8.90;;;;;;;8.01;63.94;102488.78;674590;29;1182;-85
2022/01/22 00:40:27;;;;;;;14.07;9.20;;;;;;;8.01;64.00;102483.59;679592;29;1525;-85
2022/01/22 00:40:51;;;;;;;13.98;9.45;;;;;;;7.97;64.01;102490.28;679916;29;995;-84
2022/01/22 00:41:12;;;;;;;13.30;9.32;;;;;;;7.91;64.03;102474.28;679807;29;1101;-85
2022/01/22 00:41:33;;;;;;;15.23;9.10;;;;;;;7.91;63.89;102474.28;682177;29;1493;-85
2022/01/22 00:41:53;;;;;;;15.32;8.82;;;;;;;7.98;63.83;102471.28;677219;29;1291;-85
2022/01/22 00:42:15;;;;;;;16.47;8.63;;;;;;;7.99;63.81;102473.09;676919;29;1970;-85
2022/01/22 00:42:40;;;;;;;14.32;8.95;;;;;;;7.94;63.82;102480.59;677190;29;1285;-85
2022/01/22 00:43:20;;;;;;;16.17;9.23;;;;;;;7.99;64.01;102493.00;677095;29;1133;-85
2022/01/22 00:43:41;;;;;;;15.45;9.23;;;;;;;7.97;63.76;102489.41;681560;29;2084;-85
2022/01/22 00:44:02;;;;;;;14.25;9.40;;;;;;;7.96;63.77;102485.88;687230;28;1259;-85
2022/01/22 00:44:23;;;;;;;16.10;9.95;;;;;;;7.94;64.27;102484.91;684491;28;1301;-85
2022/01/22 00:44:44;;;;;;;18.10;9.82;;;;;;;7.95;64.01;102486.69;681935;28;2485;-85
2022/01/22 00:45:05;;;;;;;18.00;9.70;;;;;;;8.00;64.37;102485.31;685129;28;1138;-85
2022/01/22 00:45:26;;;;;;;17.42;9.73;;;;;;;7.90;63.67;102478.59;680073;28;1281;-85
2022/01/22 00:45:46;;;;;;;15.45;9.63;;;;;;;7.97;64.26;102486.81;679571;29;1412;-85
2022/01/22 00:46:07;;;;;;;15.85;9.40;;;;;;;7.97;64.17;102479.00;678819;29;1103;-85
2022/01/22 00:46:46;;;;;;;14.50;9.03;;;;;;;8.04;63.88;102491.63;682181;29;1079;-85
2022/01/22 00:47:07;;;;;;;15.73;9.50;;;;;;;8.00;63.89;102476.59;678294;29;1413;-84
2022/01/22 00:47:27;;;;;;;15.60;9.40;;;;;;;7.98;64.11;102486.00;682501;28;1273;-85
2022/01/22 00:47:48;;;;;;;13.43;8.85;;;;;;;7.85;63.93;102474.78;677250;29;1220;-85
2022/01/22 00:48:09;;;;;;;13.05;9.25;;;;;;;7.90;64.35;102473.41;676912;29;1744;-84
2022/01/22 00:48:30;;;;;;;13.05;9.48;;;;;;;7.90;63.75;102478.59;679819;29;1161;-85
2022/01/22 00:48:50;;;;;;;16.25;9.70;;;;;;;7.95;63.99;102485.00;682130;29;1650;-85
2022/01/22 00:49:11;;;;;;;16.93;9.27;;;;;;;7.90;64.01;102481.19;679405;28;1436;-85
2022/01/22 00:49:36;;;;;;;17.25;9.20;;;;;;;7.88;64.01;102479.28;682180;29;1164;-85
2022/01/22 00:49:56;;;;;;;15.32;9.20;;;;;;;7.92;64.10;102484.78;679631;29;1255;-85
2022/01/22 00:50:22;;;;;;;16.30;9.80;;;;;;;7.79;64.21;102479.56;674352;29;1267;-85
2022/01/22 00:50:45;;;;;;;16.58;10.35;;;;;;;7.93;64.36;102483.97;681719;29;1528;-86
2022/01/22 00:51:06;;;;;;;15.50;10.13;;;;;;;7.88;64.31;102462.00;679759;29;1110;-85
2022/01/22 00:51:26;;;;;;;15.27;9.60;;;;;;;7.92;64.12;102481.31;674412;29;1170;-85
2022/01/22 00:51:47;;;;;;;15.63;9.60;;;;;;;7.88;64.30;102477.59;677262;29;1064;-85
2022/01/22 00:52:07;;;;;;;15.73;9.77;;;;;;;7.94;64.13;102482.31;674580;29;1070;-85
2022/01/22 00:52:44;;;;;;;14.90;9.77;;;;;;;7.97;64.29;102479.00;677247;29;1076;-85
2022/01/22 00:53:05;;;;;;;16.35;9.45;;;;;;;7.96;64.51;102478.09;681456;28;1177;-86
2022/01/22 00:53:26;;;;;;;17.77;9.80;;;;;;;7.86;64.71;102481.78;682178;29;1331;-85
2022/01/22 00:53:47;;;;;;;15.10;9.52;;;;;;;7.88;64.29;102475.00;682161;29;1237;-85
2022/01/22 00:54:08;;;;;;;13.32;9.38;;;;;;;7.94;64.27;102483.19;677199;29;1122;-85
2022/01/22 00:54:28;;;;;;;11.68;9.30;;;;;;;7.86;64.21;102480.88;684991;28;1298;-85
2022/01/22 00:54:49;;;;;;;14.53;9.70;;;;;;;7.88;64.31;102469.81;682350;28;1162;-85
2022/01/22 00:55:10;;;;;;;15.13;9.95;;;;;;;7.90;64.47;102482.88;682349;29;1052;-85
2022/01/22 00:55:31;;;;;;;15.50;9.88;;;;;;;7.83;64.62;102468.59;679668;29;1659;-86
2022/01/22 00:55:52;;;;;;;15.00;9.93;;;;;;;7.89;63.81;102470.69;682643;28;1112;-85
2022/01/22 00:56:13;;;;;;;15.43;9.73;;;;;;;7.90;64.29;102478.59;688268;28;1399;-85
2022/01/22 00:56:34;;;;;;;15.88;9.77;;;;;;;7.91;64.33;102479.47;685080;28;1405;-85
2022/01/22 00:57:04;;;;;;;14.17;9.73;;;;;;;7.88;64.29;102469.81;679837;29;1237;-84
2022/01/22 00:57:25;;;;;;;15.77;9.95;;;;;;;7.93;64.14;102473.59;680460;28;1172;-85
2022/01/22 00:57:45;;;;;;;17.85;10.30;;;;;;;7.88;64.24;102459.41;679913;29;957;-85
2022/01/22 00:58:06;;;;;;;18.20;10.00;;;;;;;7.87;64.51;102461.88;682391;29;1078;-85
2022/01/22 00:58:28;;;;;;;15.48;9.43;;;;;;;7.88;64.23;102459.41;682264;28;1284;-85
2022/01/22 00:58:49;;;;;;;16.13;9.40;;;;;;;7.74;64.14;102465.38;682534;29;1079;-85
2022/01/22 00:59:11;;;;;;;15.35;9.35;;;;;;;7.63;64.85;102467.25;682233;29;1206;-85
2022/01/22 00:59:37;;;;;;;16.05;9.73;;;;;;;7.59;64.87;102471.34;677468;29;1776;-85
2022/01/22 00:59:57;;;;;;;13.40;9.32;;;;;;;7.51;65.25;102472.50;685296;28;878;-86
2022/01/22 01:00:18;;;;;;;13.65;9.20;;;;;;;7.52;65.59;102476.91;682384;29;1099;-85
2022/01/22 01:00:39;;;;;;;14.38;9.27;;;;;;;7.48;65.66;102469.69;682449;28;1357;-85
2022/01/22 01:00:59;;;;;;;15.53;9.67;;;;;;;7.52;65.54;102464.84;677384;29;784;-87
2022/01/22 01:01:21;;;;;;;14.93;9.73;;;;;;;7.36;65.39;102457.69;680395;29;1502;-87
2022/01/22 01:01:42;;;;;;;15.13;9.73;;;;;;;7.44;65.51;102466.00;682310;29;1439;-88
2022/01/22 01:02:03;;;;;;;13.60;9.53;;;;;;;7.46;65.90;102458.28;682364;29;1983;-88
2022/01/22 01:02:24;;;;;;;12.70;9.20;;;;;;;7.46;65.72;102468.69;682986;28;1233;-88
2022/01/22 01:02:46;;;;;;;13.10;9.47;;;;;;;7.44;65.72;102457.31;681136;29;1307;-88
2022/01/22 01:03:06;;;;;;;13.40;9.40;;;;;;;7.44;66.19;102467.69;685191;28;902;-87
2022/01/22 01:03:31;;;;;;;14.82;9.50;;;;;;;7.40;66.35;102470.09;677748;28;1354;-88
2022/01/22 01:03:52;;;;;;;13.10;8.88;;;;;;;7.38;66.08;102461.28;682256;28;1173;-88
2022/01/22 01:04:12;;;;;;;14.85;9.23;;;;;;;7.47;65.99;102470.50;680066;28;1415;-87
2022/01/22 01:04:41;;;;;;;16.40;9.60;;;;;;;7.46;65.90;102466.09;679934;29;1205;-88
2022/01/22 01:05:07;;;;;;;15.43;9.68;;;;;;;7.40;66.12;102451.91;671980;29;1132;-88
2022/01/22 01:05:28;;;;;;;13.80;9.57;;;;;;;7.40;65.99;102456.19;682360;29;1322;-87
2022/01/22 01:05:49;;;;;;;13.23;9.68;;;;;;;7.43;66.15;102459.00;679794;29;1019;-88
2022/01/22 01:06:10;;;;;;;13.85;9.40;;;;;;;7.38;65.72;102445.69;677127;29;1651;-87
2022/01/22 01:06:31;;;;;;;14.95;9.32;;;;;;;7.44;65.94;102455.63;677250;28;1205;-88
2022/01/22 01:06:51;;;;;;;16.77;9.45;;;;;;;7.49;66.08;102461.13;679689;29;1202;-87
2022/01/22 01:07:13;;;;;;;15.90;9.77;;;;;;;7.40;65.91;102459.69;679102;29;1096;-88
2022/01/22 01:07:34;;;;;;;15.83;10.10;;;;;;;7.49;66.05;102463.72;677217;29;1312;-87
2022/01/22 01:07:55;;;;;;;14.07;10.00;;;;;;;7.45;65.98;102466.88;671923;29;1485;-88
2022/01/22 01:08:15;;;;;;;14.10;9.90;;;;;;;7.38;65.80;102450.88;679500;29;1857;-88
2022/01/22 01:08:37;;;;;;;12.77;9.55;;;;;;;7.40;66.12;102459.69;682534;29;1081;-88
2022/01/22 01:09:00;;;;;;;12.80;9.30;;;;;;;7.46;65.91;102450.50;679812;29;1143;-87
2022/01/22 01:09:21;;;;;;;14.35;9.50;;;;;;;7.49;66.29;102459.41;682776;28;1158;-88
2022/01/22 01:09:41;;;;;;;14.40;9.10;;;;;;;7.52;66.04;102458.72;684311;28;1075;-88
2022/01/22 01:10:06;;;;;;;14.75;9.02;;;;;;;7.62;65.63;102465.44;682368;28;1329;-88
2022/01/22 01:10:26;;;;;;;15.07;9.40;;;;;;;7.52;65.57;102456.13;682305;29;2014;-87
2022/01/22 01:10:49;;;;;;;16.20;9.93;;;;;;;7.45;65.81;102440.91;681939;29;1203;-87
2022/01/22 01:11:12;;;;;;;14.10;9.65;;;;;;;7.55;65.82;102464.13;682509;28;1104;-87
2022/01/22 01:11:37;;;;;;;13.65;9.70;;;;;;;7.47;65.96;102462.69;687709;28;1259;-87
2022/01/22 01:12:02;;;;;;;13.80;9.95;;;;;;;7.51;66.03;102449.13;685123;28;855;-87
2022/01/22 01:12:39;;;;;;;12.98;9.54;;;;;;;7.49;66.03;102448.13;682161;28;1113;-88
2022/01/22 01:13:00;;;;;;;12.30;9.05;;;;;;;7.50;65.86;102449.94;679463;28;1449;-86
2022/01/22 01:13:21;;;;;;;13.77;9.20;;;;;;;7.53;65.73;102447.53;683892;28;1199;-88
2022/01/22 01:13:46;;;;;;;12.75;9.32;;;;;;;7.53;65.74;102465.72;682283;29;1419;-87
2022/01/22 01:14:10;;;;;;;13.25;9.23;;;;;;;7.57;65.86;102456.44;677092;29;1320;-87
2022/01/22 01:14:39;;;;;;;16.45;9.90;;;;;;;7.46;65.75;102450.50;677187;29;1395;-87
2022/01/22 01:15:24;;;;;;;17.33;10.20;;;;;;;7.55;65.75;102458.91;677101;29;1522;-87
2022/01/22 01:16:32;;;;;;;16.02;10.18;;;;;;;7.47;65.92;102450.63;676505;29;1526;-88
2022/01/22 01:32:10;;;;;;;15.18;9.65;;;;;;;7.53;65.90;102464.03;676940;29;1418;-85
2022/01/22 01:32:28;;;;;;;13.35;8.95;;;;;;;7.60;66.11;102462.75;681965;29;1271;-85
2022/01/22 01:33:07;;;;;;;13.60;9.38;;;;;;;7.48;66.40;102465.41;677157;29;1386;-85
2022/01/22 01:33:39;;;;;;;19.10;9.55;;;;;;;7.55;66.30;102474.50;677875;29;1268;-84
2022/01/22 01:34:09;;;;;;;15.95;9.40;;;;;;;7.59;66.16;102473.03;677158;29;1206;-84
2022/01/22 01:34:29;;;;;;;13.50;9.40;;;;;;;7.64;65.93;102479.44;677054;29;1363;-84
2022/01/22 01:34:51;;;;;;;13.50;9.40;;;;;;;7.61;66.16;102485.31;677175;29;1196;-85
2022/01/22 01:35:12;;;;;;;13.68;9.60;;;;;;;7.64;66.43;102484.63;682129;29;1402;-85
2022/01/22 01:35:36;;;;;;;12.73;9.60;;;;;;;7.63;66.14;102470.72;679811;29;1084;-85
2022/01/22 01:35:57;;;;;;;12.75;9.80;;;;;;;7.60;65.86;102475.72;685173;28;1112;-84
2022/01/22 01:36:17;;;;;;;12.23;9.30;;;;;;;7.50;66.41;102468.13;684805;28;1101;-85
2022/01/22 01:36:39;;;;;;;11.93;8.77;;;;;;;7.54;66.10;102470.13;682535;28;1270;-85
2022/01/22 01:37:00;;;;;;;11.23;8.55;;;;;;;7.59;65.96;102476.53;679755;28;1277;-85
2022/01/22 01:37:22;;;;;;;12.85;9.30;;;;;;;7.59;66.33;102486.94;677016;29;1213;-85
2022/01/22 01:37:43;;;;;;;15.93;9.80;;;;;;;7.61;66.13;102477.53;679831;29;1161;-85
2022/01/22 01:38:05;;;;;;;16.65;9.73;;;;;;;7.58;65.95;102469.53;679450;29;1150;-84
2022/01/22 01:38:26;;;;;;;14.64;9.40;;;;;;;7.56;66.18;102476.34;681769;29;1464;-85
2022/01/22 01:38:53;;;;;;;12.50;9.30;;;;;;;7.53;66.24;102477.03;679605;29;1294;-84
2022/01/22 01:39:19;;;;;;;14.60;9.60;;;;;;;7.68;66.35;102484.94;680114;29;1378;-85
2022/01/22 01:39:40;;;;;;;15.10;9.50;;;;;;;7.56;66.39;102476.34;676547;29;1559;-85
2022/01/22 01:40:05;;;;;;;14.50;9.25;;;;;;;7.63;66.18;102483.72;679883;29;1068;-85
2022/01/22 01:40:27;;;;;;;12.65;9.00;;;;;;;7.63;66.53;102488.91;678700;29;1295;-84
2022/01/22 01:40:59;;;;;;;13.10;9.00;;;;;;;7.60;66.24;102467.94;674993;28;1205;-85
2022/01/22 01:42:06;;;;;;;13.13;8.65;;;;;;;7.56;66.60;102476.34;674365;29;1404;-85
2022/01/22 01:42:40;;;;;;;15.05;8.85;;;;;;;7.37;66.42;102475.06;682154;29;1403;-84
2022/01/22 01:43:20;;;;;;;15.07;9.13;;;;;;;7.52;66.40;102474.31;679717;29;1251;-85
2022/01/22 01:43:47;;;;;;;15.25;8.90;;;;;;;7.54;66.49;102464.91;671988;29;981;-85
2022/01/22 01:44:28;;;;;;;13.02;8.35;;;;;;;7.71;66.17;102485.94;674325;29;1379;-85
2022/01/22 01:45:09;;;;;;;11.38;8.43;;;;;;;7.66;66.31;102478.75;673943;29;1244;-85
2022/01/22 01:45:38;;;;;;;11.95;8.95;;;;;;;7.52;66.17;102463.91;677882;29;1736;-85
2022/01/22 01:45:59;;;;;;;12.10;9.03;;;;;;;7.60;66.15;102467.94;674648;29;1072;-85
2022/01/22 01:46:20;;;;;;;12.07;8.40;;;;;;;7.70;66.32;102477.25;678025;29;1201;-85
2022/01/22 01:46:57;;;;;;;13.95;8.77;;;;;;;7.57;66.36;102470.34;676541;29;1149;-85
2022/01/22 01:47:19;;;;;;;14.68;9.75;;;;;;;7.59;65.92;102473.03;674359;29;1236;-85
2022/01/22 01:47:48;;;;;;;15.38;10.13;;;;;;;7.58;66.25;102485.13;677278;29;1623;-85
2022/01/22 01:48:15;;;;;;;15.63;9.38;;;;;;;7.57;66.42;102464.22;674388;29;1154;-85
2022/01/22 01:48:42;;;;;;;13.75;8.40;;;;;;;7.63;66.44;102462.94;679662;29;1006;-85
2022/01/22 01:49:04;;;;;;;13.43;8.95;;;;;;;7.65;66.19;102465.66;682385;29;959;-85
2022/01/22 01:49:26;;;;;;;13.38;9.23;;;;;;;7.61;66.09;102474.94;679412;29;1249;-85
2022/01/22 01:49:46;;;;;;;13.32;9.10;;;;;;;7.59;65.91;102475.63;681891;29;1276;-85
2022/01/22 01:50:21;;;;;;;14.57;9.02;;;;;;;7.57;66.52;102475.53;679422;29;1731;-85
2022/01/22 01:50:43;;;;;;;13.77;8.70;;;;;;;7.53;66.22;102461.44;679753;29;1383;-85
2022/01/22 01:51:04;;;;;;;14.27;8.65;;;;;;;7.53;66.54;102469.22;677018;29;1260;-85
2022/01/22 01:51:29;;;;;;;13.05;8.85;;;;;;;7.63;66.56;102482.84;682181;28;1366;-85
2022/01/22 01:51:52;;;;;;;12.50;9.20;;;;;;;7.60;65.97;102477.41;682376;29;1257;-85
2022/01/22 01:52:19;;;;;;;12.38;9.07;;;;;;;7.67;65.91;102480.56;677493;29;1378;-85
2022/01/22 01:55:09;;;;;;;18.17;9.43;;;;;;;7.61;66.41;102485.31;671945;29;1320;-85
2022/01/22 01:56:02;;;;;;;12.68;8.90;;;;;;;7.59;66.51;102486.00;678832;29;1467;-84
2022/01/22 01:57:46;;;;;;;14.18;9.05;;;;;;;7.60;66.52;102488.72;679800;29;1999;-85
2022/01/22 01:58:10;;;;;;;14.07;9.30;;;;;;;7.52;66.53;102480.41;677235;29;1237;-85
2022/01/22 01:58:34;;;;;;;15.30;9.63;;;;;;;7.50;66.29;102470.72;674938;29;1724;-84
2022/01/22 01:59:03;;;;;;;14.55;9.60;;;;;;;7.58;66.78;102485.13;677104;29;1370;-85
2022/01/22 01:59:24;;;;;;;13.88;9.45;;;;;;;7.56;66.27;102481.53;684719;28;1092;-85
2022/01/22 01:59:46;;;;;;;12.82;9.25;;;;;;;7.54;66.62;102488.28;681900;29;1203;-84
2022/01/22 02:00:17;;;;;;;13.10;9.13;;;;;;;7.49;66.57;102490.59;674296;29;1381;-85
2022/01/22 02:00:38;;;;;;;13.40;9.18;;;;;;;7.61;66.66;102490.53;676909;29;1567;-85
2022/01/22 02:01:01;;;;;;;14.10;9.38;;;;;;;7.61;66.31;102485.31;684912;28;1283;-85
2022/01/22 02:01:23;;;;;;;14.00;9.27;;;;;;;7.63;65.98;102488.91;684083;28;1154;-85
2022/01/22 02:02:01;;;;;;;13.93;9.02;;;;;;;7.59;66.00;102489.53;681944;29;1303;-85
2022/01/22 02:02:25;;;;;;;12.85;8.80;;;;;;;7.61;66.20;102480.13;677986;29;1742;-85
2022/01/22 02:02:46;;;;;;;14.20;9.00;;;;;;;7.61;66.00;102479.25;682281;28;1136;-84
2022/01/22 02:03:12;;;;;;;15.48;9.52;;;;;;;7.62;66.21;102484.53;679534;29;1215;-84
2022/01/22 02:03:34;;;;;;;17.77;9.60;;;;;;;7.48;66.30;102480.06;680756;29;1462;-85
2022/01/22 02:04:11;;;;;;;16.10;9.30;;;;;;;7.45;66.34;102487.69;684840;28;1224;-85
2022/01/22 02:04:33;;;;;;;13.10;9.05;;;;;;;7.51;66.13;102482.91;682088;29;888;-85
2022/01/22 02:04:53;;;;;;;12.35;9.15;;;;;;;7.54;66.64;102472.72;679790;28;1200;-86
2022/01/22 02:05:17;;;;;;;12.45;8.77;;;;;;;7.58;66.26;102494.59;681595;29;1144;-85
2022/01/22 02:05:38;;;;;;;15.40;9.30;;;;;;;7.56;66.11;102478.03;679731;29;1362;-85
2022/01/22 02:05:59;;;;;;;15.57;9.02;;;;;;;7.56;66.29;102478.94;680122;29;1415;-85
2022/01/22 02:06:22;;;;;;;15.98;9.10;;;;;;;7.60;66.38;102488.72;678451;29;1522;-85
2022/01/22 02:06:42;;;;;;;16.65;9.13;;;;;;;7.64;66.05;102482.94;682413;29;1520;-85
2022/01/22 02:07:04;;;;;;;16.93;9.03;;;;;;;7.60;66.25;102478.31;682281;29;1150;-85
2022/01/22 02:07:29;;;;;;;18.25;9.65;;;;;;;7.61;66.18;102485.31;677081;29;1294;-85
2022/01/22 02:08:01;;;;;;;15.73;9.38;;;;;;;7.65;66.34;102484.75;679737;29;1243;-85
2022/01/22 02:08:28;;;;;;;15.00;9.25;;;;;;;7.65;66.17;102481.22;684797;28;1901;-84
2022/01/22 02:08:53;;;;;;;17.65;9.75;;;;;;;7.64;65.58;102477.75;685084;28;1154;-85
2022/01/22 02:09:19;;;;;;;15.60;9.38;;;;;;;7.75;66.03;102498.34;676927;29;1315;-85
2022/01/22 02:09:41;;;;;;;16.42;9.60;;;;;;;7.64;66.12;102475.16;679498;29;1395;-85
2022/01/22 02:10:03;;;;;;;15.35;9.50;;;;;;;7.68;65.80;102484.06;671878;29;1254;-85
2022/01/22 02:10:27;;;;;;;16.35;9.35;;;;;;;7.63;66.37;102488.91;678660;29;1568;-85
2022/01/22 02:10:57;;;;;;;17.92;9.20;;;;;;;7.50;66.32;102478.50;681300;29;1144;-85
2022/01/22 02:11:45;;;;;;;16.17;9.35;;;;;;;7.56;65.90;102480.63;677529;29;1169;-85
2022/01/22 02:13:38;;;;;;;15.32;9.25;;;;;;;7.59;66.28;102486.94;677572;29;1046;-85
2022/01/22 02:23:30;;;;;;;13.10;8.90;;;;;;;7.56;65.87;102483.22;676447;29;951;-85
2022/01/22 02:23:45;;;;;;;14.70;9.00;;;;;;;7.50;66.36;102486.31;679412;29;1217;-85
2022/01/22 02:24:07;;;;;;;14.50;8.77;;;;;;;7.62;66.01;102475.84;677048;29;1252;-85